Time;durP1;ratioP1;P1;durP2;ratioP2;P2;SDS_P1;SDS_P2;PMS_P1;PMS_P2;Temp;Humidity;BMP_temperature;BMP_pressure;BME280_temperature;BME280_humidity;BME280_pressure;Samples;Min_cycle;Max_cycle;Signal;HPM_P1;HPM_P2
2023/07/05 00:00:08;;;;;;;;;;;17.10;99.90;;;;;;8351095;28;19948;-73
2023/07/05 00:04:10;;;;;;;;;;;17.10;99.90;;;;;;8349874;28;19956;-73
2023/07/05 00:08:11;;;;;;;;;;;17.20;99.90;;;;;;8389251;28;20015;-73
2023/07/05 00:12:13;;;;;;;;;;;17.10;99.90;;;;;;8350251;28;20024;-73
2023/07/05 00:16:15;;;;;;;;;;;17.00;99.90;;;;;;8357230;28;19961;-74
2023/07/05 00:30:23;;;;;;;;;;;17.00;99.90;;;;;;8363475;28;20399;-74
2023/07/05 00:34:24;;;;;;;;;;;16.90;99.90;;;;;;8361112;28;20299;-74
2023/07/05 00:38:26;;;;;;;;;;;16.90;99.90;;;;;;8359983;28;20338;-73
2023/07/05 00:42:28;;;;;;;;;;;16.90;99.90;;;;;;8345870;28;19998;-73
2023/07/05 00:46:31;;;;;;;;;;;17.00;99.90;;;;;;8364383;28;19925;-74
2023/07/05 00:50:37;;;;;;;;;;;17.00;99.90;;;;;;8360852;28;19962;-73
2023/07/05 00:54:41;;;;;;;;;;;17.00;99.90;;;;;;8382520;28;19932;-74
2023/07/05 00:58:43;;;;;;;;;;;17.00;99.90;;;;;;8346984;28;20431;-73
2023/07/05 01:02:46;;;;;;;;;;;17.00;99.90;;;;;;8363042;28;19931;-73
2023/07/05 01:17:19;;;;;;;;;;;17.10;99.90;;;;;;8349372;28;19936;-73
2023/07/05 01:21:32;;;;;;;;;;;17.00;99.90;;;;;;8305837;28;19925;-73
2023/07/05 01:25:46;;;;;;;;;;;17.10;99.90;;;;;;8345267;28;19937;-73
2023/07/05 01:30:01;;;;;;;;;;;17.10;99.90;;;;;;8331154;28;19949;-74
2023/07/05 01:34:08;;;;;;;;;;;17.10;99.90;;;;;;8356850;28;20400;-72
2023/07/05 01:38:10;;;;;;;;;;;17.00;99.90;;;;;;8342310;28;19987;-73
2023/07/05 01:42:12;;;;;;;;;;;17.00;99.90;;;;;;8335288;28;19936;-72
2023/07/05 01:46:16;;;;;;;;;;;17.00;99.90;;;;;;8339235;28;19928;-72
2023/07/05 01:50:29;;;;;;;;;;;16.90;99.90;;;;;;8311610;28;19933;-72
2023/07/05 01:54:50;;;;;;;;;;;16.90;99.90;;;;;;8287773;28;19933;-73
2023/07/05 01:58:54;;;;;;;;;;;16.80;99.90;;;;;;8303531;28;19971;-73
2023/07/05 02:03:01;;;;;;;;;;;16.80;99.90;;;;;;8308459;28;19926;-73
2023/07/05 02:07:04;;;;;;;;;;;16.80;99.90;;;;;;8338822;28;19924;-73
2023/07/05 02:11:06;;;;;;;;;;;16.80;99.90;;;;;;8335504;28;19925;-73
2023/07/05 02:15:08;;;;;;;;;;;16.80;99.90;;;;;;8354874;28;19950;-72
2023/07/05 02:19:09;;;;;;;;;;;16.70;99.90;;;;;;8356612;28;19929;-73
2023/07/05 02:23:11;;;;;;;;;;;16.70;99.90;;;;;;8315408;28;19929;-73
2023/07/05 02:27:13;;;;;;;;;;;16.60;99.90;;;;;;8336287;28;19931;-73
2023/07/05 02:31:15;;;;;;;;;;;16.50;99.90;;;;;;8314498;28;19933;-73
2023/07/05 02:35:16;;;;;;;;;;;16.50;99.90;;;;;;8314682;28;19935;-72
2023/07/05 02:39:18;;;;;;;;;;;16.40;99.90;;;;;;8341863;28;19924;-72
2023/07/05 02:43:19;;;;;;;;;;;16.30;99.90;;;;;;8323352;28;19930;-73
2023/07/05 02:47:22;;;;;;;;;;;16.10;99.90;;;;;;8331942;28;19933;-73
2023/07/05 02:56:27;;;;;;;;;;;15.90;99.90;;;;;;8314885;28;19959;-72
2023/07/05 03:00:30;;;;;;;;;;;15.80;99.90;;;;;;8336145;28;19944;-73
2023/07/05 03:04:32;;;;;;;;;;;15.70;99.90;;;;;;8340670;28;20365;-72
2023/07/05 03:08:34;;;;;;;;;;;15.50;99.90;;;;;;8336633;28;20375;-72
2023/07/05 03:12:35;;;;;;;;;;;15.40;99.90;;;;;;8324998;28;19925;-72
2023/07/05 03:16:37;;;;;;;;;;;15.30;99.90;;;;;;8363663;28;19985;-73
2023/07/05 03:20:39;;;;;;;;;;;15.20;99.90;;;;;;8380635;28;19930;-71
2023/07/05 03:24:41;;;;;;;;;;;15.10;99.90;;;;;;8371258;28;19932;-72
2023/07/05 03:28:42;;;;;;;;;;;15.10;99.90;;;;;;8368162;28;19974;-72
2023/07/05 03:32:44;;;;;;;;;;;15.10;99.90;;;;;;8359286;28;20042;-72
2023/07/05 03:36:46;;;;;;;;;;;15.10;99.90;;;;;;8357368;28;19941;-72
2023/07/05 03:40:55;;;;;;;;;;;15.10;99.90;;;;;;8358809;28;20015;-73
2023/07/05 03:44:56;;;;;;;;;;;15.10;99.90;;;;;;8370020;28;19924;-72
2023/07/05 03:48:58;;;;;;;;;;;15.10;99.90;;;;;;8379005;28;19933;-72
2023/07/05 03:53:00;;;;;;;;;;;15.00;99.90;;;;;;8371847;28;20011;-72
2023/07/05 03:57:01;;;;;;;;;;;15.00;99.90;;;;;;8367630;28;19929;-72
2023/07/05 04:01:03;;;;;;;;;;;15.00;99.90;;;;;;8381542;28;19932;-72
2023/07/05 04:05:05;;;;;;;;;;;15.00;99.90;;;;;;8354728;28;20403;-72
2023/07/05 04:13:47;;;;;;;;;;;15.00;99.90;;;;;;8349953;28;20398;-73
2023/07/05 04:17:48;;;;;;;;;;;15.00;99.90;;;;;;8368557;28;19929;-73
2023/07/05 04:21:50;;;;;;;;;;;14.90;99.90;;;;;;8365901;28;19925;-72
2023/07/05 04:25:59;;;;;;;;;;;14.90;99.90;;;;;;8365405;28;19932;-72
2023/07/05 04:30:03;;;;;;;;;;;14.90;99.90;;;;;;8349964;28;20380;-72
2023/07/05 04:34:05;;;;;;;;;;;14.90;99.90;;;;;;8358761;28;19933;-73
2023/07/05 04:38:08;;;;;;;;;;;14.90;99.90;;;;;;8354170;28;19924;-73
2023/07/05 04:42:10;;;;;;;;;;;14.90;99.90;;;;;;8356637;28;19986;-72
2023/07/05 04:46:11;;;;;;;;;;;14.90;99.90;;;;;;8329552;28;19932;-71
2023/07/05 04:50:13;;;;;;;;;;;14.90;99.90;;;;;;8342913;28;19972;-72
2023/07/05 04:54:16;;;;;;;;;;;14.90;99.90;;;;;;8352410;28;19976;-72
2023/07/05 04:58:18;;;;;;;;;;;14.90;99.90;;;;;;8372032;28;19935;-72
2023/07/05 05:02:19;;;;;;;;;;;14.80;99.90;;;;;;8358243;28;19929;-73
2023/07/05 05:06:21;;;;;;;;;;;14.60;99.90;;;;;;8369832;28;19971;-73
2023/07/05 05:10:23;;;;;;;;;;;14.50;99.90;;;;;;8364792;28;19939;-72
2023/07/05 05:14:24;;;;;;;;;;;14.50;99.90;;;;;;8376038;28;19933;-72
2023/07/05 05:18:28;;;;;;;;;;;14.40;99.90;;;;;;8364660;28;19932;-73
2023/07/05 05:22:29;;;;;;;;;;;14.40;99.90;;;;;;8343616;28;19932;-73
2023/07/05 05:26:31;;;;;;;;;;;14.40;99.90;;;;;;8366451;28;19932;-73
2023/07/05 05:30:33;;;;;;;;;;;14.30;99.90;;;;;;8363849;28;19931;-73
2023/07/05 05:34:35;;;;;;;;;;;14.20;99.90;;;;;;8361676;28;20295;-72
2023/07/05 05:38:37;;;;;;;;;;;14.20;99.90;;;;;;8371079;28;19940;-72
2023/07/05 05:42:39;;;;;;;;;;;14.20;99.90;;;;;;8373260;28;19925;-72
2023/07/05 05:46:40;;;;;;;;;;;14.10;99.90;;;;;;8373054;28;19924;-73
2023/07/05 05:50:42;;;;;;;;;;;14.10;99.90;;;;;;8359293;28;20356;-71
2023/07/05 05:54:44;;;;;;;;;;;14.10;99.90;;;;;;8368731;28;20380;-73
2023/07/05 05:58:46;;;;;;;;;;;14.10;99.90;;;;;;8358010;28;19929;-73
2023/07/05 06:02:48;;;;;;;;;;;14.10;99.90;;;;;;8352147;28;19932;-72
2023/07/05 06:06:50;;;;;;;;;;;14.00;99.90;;;;;;8335808;28;20233;-71
2023/07/05 06:10:55;;;;;;;;;;;13.90;99.90;;;;;;8350859;28;19970;-72
2023/07/05 06:14:57;;;;;;;;;;;13.40;99.90;;;;;;8366682;28;19924;-72
2023/07/05 06:18:59;;;;;;;;;;;13.00;99.90;;;;;;8354833;28;19947;-73
2023/07/05 06:23:03;;;;;;;;;;;12.90;99.90;;;;;;8346258;28;20338;-73
2023/07/05 06:27:04;;;;;;;;;;;12.80;99.90;;;;;;8363151;28;19929;-72
2023/07/05 06:31:07;;;;;;;;;;;12.50;99.90;;;;;;8368354;28;19924;-72
2023/07/05 06:35:08;;;;;;;;;;;12.20;99.90;;;;;;8351808;28;19932;-72
2023/07/05 06:39:10;;;;;;;;;;;12.10;99.90;;;;;;8369867;28;19924;-72
2023/07/05 06:43:12;;;;;;;;;;;12.10;99.90;;;;;;8375157;28;20359;-71
2023/07/05 06:47:14;;;;;;;;;;;12.00;99.90;;;;;;8376282;28;20419;-73
2023/07/05 06:51:16;;;;;;;;;;;12.10;99.90;;;;;;8381264;28;19940;-73
2023/07/05 06:55:18;;;;;;;;;;;12.00;99.90;;;;;;8384302;28;19970;-73
2023/07/05 06:59:20;;;;;;;;;;;12.00;99.90;;;;;;8380295;28;19957;-72
2023/07/05 07:03:21;;;;;;;;;;;11.90;99.90;;;;;;8362969;28;19957;-73
2023/07/05 07:07:23;;;;;;;;;;;11.90;99.90;;;;;;8371574;28;20009;-72
2023/07/05 07:11:25;;;;;;;;;;;11.90;99.90;;;;;;8391822;28;19928;-72
2023/07/05 07:15:26;;;;;;;;;;;11.90;99.90;;;;;;8376722;28;20360;-72
2023/07/05 07:19:28;;;;;;;;;;;11.90;99.90;;;;;;8367752;28;19972;-72
2023/07/05 07:23:30;;;;;;;;;;;12.00;99.90;;;;;;8368466;28;19986;-72
2023/07/05 07:27:32;;;;;;;;;;;12.10;99.90;;;;;;8366651;28;19924;-73
2023/07/05 07:31:34;;;;;;;;;;;12.10;99.90;;;;;;8374544;28;19925;-72
2023/07/05 07:35:35;;;;;;;;;;;12.10;99.90;;;;;;8376097;28;19939;-73
2023/07/05 07:54:44;;;;;;;;;;;12.30;99.90;;;;;;8370047;28;19925;-73
2023/07/05 07:58:47;;;;;;;;;;;12.30;99.90;;;;;;8360688;28;19928;-72
2023/07/05 08:02:49;;;;;;;;;;;12.30;99.90;;;;;;8360540;28;19925;-72
2023/07/05 08:06:51;;;;;;;;;;;12.30;99.90;;;;;;8363675;28;19986;-74
2023/07/05 08:10:52;;;;;;;;;;;12.40;99.90;;;;;;8352139;28;19950;-73
2023/07/05 08:14:54;;;;;;;;;;;12.50;99.90;;;;;;8338985;28;19952;-73
2023/07/05 08:18:57;;;;;;;;;;;12.50;99.90;;;;;;8351086;28;19929;-72
2023/07/05 08:22:59;;;;;;;;;;;12.50;99.90;;;;;;8332640;28;20277;-72
2023/07/05 08:27:00;;;;;;;;;;;12.50;99.90;;;;;;8334992;28;19982;-73
2023/07/05 08:31:03;;;;;;;;;;;12.40;99.90;;;;;;8338315;28;19979;-72
2023/07/05 08:35:05;;;;;;;;;;;12.20;99.90;;;;;;8340364;28;19928;-73
2023/07/05 08:39:08;;;;;;;;;;;12.10;99.90;;;;;;8341227;28;19933;-73
2023/07/05 08:43:29;;;;;;;;;;;12.10;99.90;;;;;;8345996;28;19948;-72
2023/07/05 08:47:32;;;;;;;;;;;12.20;99.90;;;;;;8342176;28;19929;-73
2023/07/05 08:51:35;;;;;;;;;;;12.20;99.90;;;;;;8337431;28;19968;-73
2023/07/05 08:55:47;;;;;;;;;;;12.10;99.90;;;;;;8334711;28;19925;-73
2023/07/05 08:59:49;;;;;;;;;;;12.20;99.90;;;;;;8330187;28;19948;-76
2023/07/05 09:03:50;;;;;;;;;;;12.20;99.90;;;;;;8312448;28;20424;-74
2023/07/05 09:08:16;;;;;;;;;;;12.10;99.90;;;;;;8339136;28;20080;-74
2023/07/05 09:12:27;;;;;;;;;;;12.10;99.90;;;;;;8330145;28;20280;-73
2023/07/05 09:16:37;;;;;;;;;;;12.00;99.90;;;;;;8338759;28;19979;-73
2023/07/05 09:20:40;;;;;;;;;;;11.90;99.90;;;;;;8336887;28;19990;-75
2023/07/05 09:24:44;;;;;;;;;;;11.90;99.90;;;;;;8335315;28;19925;-72
2023/07/05 09:28:48;;;;;;;;;;;11.90;99.90;;;;;;8333544;28;19939;-75
2023/07/05 09:32:53;;;;;;;;;;;11.90;99.90;;;;;;8352324;28;19928;-73
2023/07/05 09:36:54;;;;;;;;;;;11.90;99.90;;;;;;8333351;28;19925;-75
2023/07/05 09:41:09;;;;;;;;;;;11.90;99.90;;;;;;8328432;28;20291;-75
2023/07/05 09:45:12;;;;;;;;;;;11.90;99.90;;;;;;8342850;28;19932;-76
2023/07/05 09:49:15;;;;;;;;;;;11.90;99.90;;;;;;8325946;28;19929;-75
2023/07/05 09:53:35;;;;;;;;;;;11.90;99.90;;;;;;8324697;28;20032;-75
2023/07/05 09:57:38;;;;;;;;;;;11.90;99.90;;;;;;8339071;28;19971;-73
2023/07/05 10:01:41;;;;;;;;;;;12.00;99.90;;;;;;8339410;28;20287;-76
2023/07/05 10:05:50;;;;;;;;;;;12.10;99.90;;;;;;8350081;28;19926;-74
2023/07/05 10:10:06;;;;;;;;;;;12.10;99.90;;;;;;8334872;28;19940;-77
2023/07/05 10:14:12;;;;;;;;;;;12.20;99.90;;;;;;8340623;28;19936;-74
2023/07/05 10:18:26;;;;;;;;;;;12.40;99.90;;;;;;8335699;28;19979;-76
2023/07/05 10:22:30;;;;;;;;;;;12.50;99.90;;;;;;8343848;28;19929;-77
2023/07/05 10:26:32;;;;;;;;;;;12.70;99.90;;;;;;8338932;28;19928;-77
2023/07/05 10:30:51;;;;;;;;;;;12.80;99.90;;;;;;8347366;28;19932;-77
2023/07/05 10:34:55;;;;;;;;;;;13.00;99.90;;;;;;8333069;28;19933;-77
2023/07/05 10:38:57;;;;;;;;;;;13.00;99.90;;;;;;8352197;28;19995;-76
2023/07/05 10:43:00;;;;;;;;;;;13.00;99.90;;;;;;8334297;28;20372;-75
2023/07/05 10:47:03;;;;;;;;;;;13.20;99.90;;;;;;8340127;28;19933;-75
2023/07/05 10:51:28;;;;;;;;;;;13.50;99.90;;;;;;8330073;28;19931;-75
2023/07/05 10:55:38;;;;;;;;;;;13.60;99.90;;;;;;8324506;28;19928;-75
2023/07/05 10:59:43;;;;;;;;;;;13.70;99.90;;;;;;8333790;28;20359;-77
2023/07/05 11:03:55;;;;;;;;;;;13.80;99.90;;;;;;8351746;28;19929;-74
2023/07/05 11:07:59;;;;;;;;;;;13.80;99.90;;;;;;8334984;28;19929;-73
2023/07/05 11:12:03;;;;;;;;;;;13.90;99.90;;;;;;8335805;28;20003;-74
2023/07/05 11:16:05;;;;;;;;;;;14.10;99.90;;;;;;8332141;28;19963;-75
2023/07/05 11:20:39;;;;;;;;;;;14.30;99.90;;;;;;8352043;28;19925;-75
2023/07/05 11:24:41;;;;;;;;;;;14.50;99.90;;;;;;8314955;28;19939;-74
2023/07/05 11:28:43;;;;;;;;;;;14.70;99.90;;;;;;8344964;28;19932;-74
2023/07/05 11:33:03;;;;;;;;;;;14.80;99.90;;;;;;8329290;28;19929;-76
2023/07/05 11:37:06;;;;;;;;;;;15.10;99.90;;;;;;8342135;28;20383;-74
2023/07/05 11:41:09;;;;;;;;;;;15.40;99.90;;;;;;8323038;28;19963;-75
2023/07/05 11:45:16;;;;;;;;;;;15.60;99.90;;;;;;8328307;28;20443;-73
2023/07/05 11:49:24;;;;;;;;;;;15.60;99.90;;;;;;8325072;28;19978;-74
2023/07/05 11:53:29;;;;;;;;;;;15.50;99.90;;;;;;8339919;28;19936;-74
2023/07/05 11:57:45;;;;;;;;;;;15.20;99.90;;;;;;8341099;28;19933;-75
2023/07/05 12:01:47;;;;;;;;;;;14.90;99.90;;;;;;8343277;28;20487;-74
2023/07/05 12:05:59;;;;;;;;;;;14.70;99.90;;;;;;8317873;28;20063;-74
2023/07/05 12:10:01;;;;;;;;;;;14.50;99.90;;;;;;8334453;28;20306;-77
2023/07/05 12:14:04;;;;;;;;;;;14.40;99.90;;;;;;8317339;28;20384;-75
2023/07/05 12:18:09;;;;;;;;;;;14.30;99.90;;;;;;8338477;28;19937;-75
2023/07/05 12:22:16;;;;;;;;;;;14.20;99.90;;;;;;8339721;28;20458;-76
2023/07/05 12:26:23;;;;;;;;;;;14.10;99.90;;;;;;8360551;28;19936;-74
2023/07/05 12:30:25;;;;;;;;;;;14.20;99.90;;;;;;8351007;28;20948;-74
2023/07/05 12:34:27;;;;;;;;;;;14.20;99.90;;;;;;8345795;28;19987;-76
2023/07/05 12:38:29;;;;;;;;;;;14.30;99.90;;;;;;8335163;28;19929;-76
2023/07/05 12:42:31;;;;;;;;;;;14.30;99.90;;;;;;8350288;28;19933;-75
2023/07/05 12:46:33;;;;;;;;;;;14.30;99.90;;;;;;8339647;28;19936;-75
2023/07/05 12:50:35;;;;;;;;;;;14.30;99.90;;;;;;8352266;28;19937;-75
2023/07/05 12:54:37;;;;;;;;;;;14.30;99.90;;;;;;8336775;28;20662;-76
2023/07/05 12:58:44;;;;;;;;;;;14.30;99.90;;;;;;8350942;28;19925;-75
2023/07/05 13:02:46;;;;;;;;;;;14.30;99.90;;;;;;8350605;28;19933;-76
2023/07/05 13:06:50;;;;;;;;;;;14.30;99.90;;;;;;8331570;28;19933;-75
2023/07/05 13:10:52;;;;;;;;;;;14.40;99.90;;;;;;8343426;28;19941;-76
2023/07/05 13:15:05;;;;;;;;;;;14.50;99.90;;;;;;8349376;28;20346;-76
2023/07/05 13:19:08;;;;;;;;;;;14.70;99.90;;;;;;8351641;28;20278;-77
2023/07/05 13:23:09;;;;;;;;;;;14.80;99.90;;;;;;8350253;28;20382;-76
2023/07/05 13:27:16;;;;;;;;;;;15.00;99.90;;;;;;8333479;28;19929;-75
2023/07/05 13:31:19;;;;;;;;;;;15.10;99.90;;;;;;8330461;28;19978;-76
2023/07/05 13:35:22;;;;;;;;;;;15.40;99.90;;;;;;8338409;28;19929;-75
2023/07/05 13:39:24;;;;;;;;;;;15.70;99.90;;;;;;8327630;28;19933;-75
2023/07/05 13:43:25;;;;;;;;;;;15.90;99.90;;;;;;8330195;28;19925;-75
2023/07/05 13:57:35;;;;;;;;;;;16.10;99.90;;;;;;8335342;28;19924;-76
2023/07/05 14:01:36;;;;;;;;;;;16.00;99.90;;;;;;8330303;28;19932;-75
2023/07/05 14:05:39;;;;;;;;;;;16.10;99.90;;;;;;8333166;28;19933;-76
2023/07/05 14:09:40;;;;;;;;;;;16.30;99.90;;;;;;8325408;28;19929;-77
2023/07/05 14:18:55;;;;;;;;;;;16.60;99.90;;;;;;8334398;28;19935;-76
2023/07/05 14:23:01;;;;;;;;;;;16.60;99.90;;;;;;8295410;28;19928;-77
2023/07/05 14:27:02;;;;;;;;;;;16.60;99.90;;;;;;8303740;28;19932;-76
2023/07/05 14:31:05;;;;;;;;;;;16.70;99.90;;;;;;8298090;28;19934;-77
2023/07/05 14:35:13;;;;;;;;;;;16.90;99.90;;;;;;8301673;28;19929;-76
2023/07/05 14:39:15;;;;;;;;;;;17.10;99.90;;;;;;8298035;28;19980;-75
2023/07/05 14:43:17;;;;;;;;;;;17.30;99.90;;;;;;8303278;28;19929;-76
2023/07/05 14:47:19;;;;;;;;;;;17.40;99.90;;;;;;8301590;28;19936;-76
2023/07/05 14:51:24;;;;;;;;;;;17.30;99.90;;;;;;8317980;28;20381;-76
2023/07/05 14:55:29;;;;;;;;;;;17.30;99.90;;;;;;8293476;28;19936;-76
2023/07/05 14:59:31;;;;;;;;;;;17.30;99.90;;;;;;8308849;28;19929;-77
2023/07/05 15:03:36;;;;;;;;;;;17.20;99.90;;;;;;8318969;28;19940;-77
2023/07/05 15:07:38;;;;;;;;;;;17.20;99.90;;;;;;8296728;28;19933;-76
2023/07/05 15:11:41;;;;;;;;;;;17.40;99.90;;;;;;8301221;28;19967;-76
2023/07/05 15:15:43;;;;;;;;;;;17.70;99.90;;;;;;8295823;28;20385;-76
2023/07/05 15:19:48;;;;;;;;;;;17.90;99.90;;;;;;8305036;28;20023;-77
2023/07/05 15:23:50;;;;;;;;;;;18.00;99.90;;;;;;8340692;28;19925;-77
2023/07/05 15:27:53;;;;;;;;;;;18.10;99.90;;;;;;8338349;28;19929;-76
2023/07/05 15:31:55;;;;;;;;;;;18.20;99.90;;;;;;8335709;28;19987;-76
2023/07/05 15:35:56;;;;;;;;;;;18.20;99.90;;;;;;8355758;28;19925;-75
2023/07/05 15:39:58;;;;;;;;;;;18.20;99.90;;;;;;8333515;28;19936;-77
2023/07/05 15:44:00;;;;;;;;;;;18.20;99.90;;;;;;8338271;28;19933;-76
2023/07/05 15:48:02;;;;;;;;;;;18.20;99.90;;;;;;8326470;28;20340;-74
2023/07/05 15:52:04;;;;;;;;;;;18.10;99.90;;;;;;8333551;28;20427;-77
2023/07/05 15:56:06;;;;;;;;;;;18.00;99.90;;;;;;8333440;28;19933;-77
2023/07/05 16:00:12;;;;;;;;;;;18.00;99.90;;;;;;8337301;28;19932;-77
2023/07/05 16:04:13;;;;;;;;;;;18.00;99.90;;;;;;8346032;28;19929;-76
2023/07/05 16:08:15;;;;;;;;;;;18.00;99.90;;;;;;8338301;28;19978;-78
2023/07/05 16:12:17;;;;;;;;;;;18.20;99.90;;;;;;8351618;28;19932;-76
2023/07/05 16:16:19;;;;;;;;;;;18.40;99.90;;;;;;8346162;28;19936;-75
2023/07/05 16:20:21;;;;;;;;;;;18.40;99.90;;;;;;8341609;28;19933;-77
2023/07/05 16:24:23;;;;;;;;;;;18.20;99.90;;;;;;8344551;28;21519;-78
2023/07/05 16:28:25;;;;;;;;;;;18.10;99.90;;;;;;8353868;28;19955;-77
2023/07/05 16:32:27;;;;;;;;;;;18.10;99.90;;;;;;8315205;28;20376;-77
2023/07/05 16:36:31;;;;;;;;;;;18.00;99.90;;;;;;8329149;28;20391;-75
2023/07/05 16:40:37;;;;;;;;;;;17.80;99.90;;;;;;8333212;28;20369;-73
2023/07/05 16:44:39;;;;;;;;;;;17.50;99.90;;;;;;8341548;28;20384;-76
2023/07/05 16:48:42;;;;;;;;;;;17.30;99.90;;;;;;8335646;28;19964;-77
2023/07/05 16:52:45;;;;;;;;;;;17.20;99.90;;;;;;8332355;28;19956;-77
2023/07/05 16:56:47;;;;;;;;;;;17.10;99.90;;;;;;8357663;28;20052;-76
2023/07/05 17:01:00;;;;;;;;;;;17.10;99.90;;;;;;8341372;28;19991;-76
2023/07/05 17:05:03;;;;;;;;;;;17.00;99.90;;;;;;8342007;28;19939;-77
2023/07/05 17:09:05;;;;;;;;;;;17.00;99.90;;;;;;8335061;28;19928;-76
2023/07/05 17:13:07;;;;;;;;;;;17.00;99.90;;;;;;8337052;28;19932;-75
2023/07/05 17:17:09;;;;;;;;;;;17.20;99.90;;;;;;8347460;28;19933;-77
2023/07/05 17:21:11;;;;;;;;;;;17.30;99.90;;;;;;8355661;28;20388;-75
2023/07/05 17:25:13;;;;;;;;;;;17.50;99.90;;;;;;8317806;28;19933;-75
2023/07/05 17:29:15;;;;;;;;;;;17.60;99.90;;;;;;8335633;28;20022;-77
2023/07/05 17:33:16;;;;;;;;;;;17.60;99.90;;;;;;8333126;28;19931;-77
2023/07/05 17:37:18;;;;;;;;;;;17.70;99.90;;;;;;8315497;28;19931;-76
2023/07/05 17:41:21;;;;;;;;;;;17.80;99.90;;;;;;8340365;28;20433;-77
2023/07/05 17:45:23;;;;;;;;;;;17.90;99.90;;;;;;8316564;28;19929;-76
2023/07/05 17:49:24;;;;;;;;;;;17.90;99.90;;;;;;8334757;28;19933;-76
2023/07/05 17:53:26;;;;;;;;;;;18.00;99.90;;;;;;8332084;28;22048;-76
2023/07/05 17:57:28;;;;;;;;;;;18.00;99.90;;;;;;8347849;28;20328;-76
2023/07/05 18:01:29;;;;;;;;;;;18.00;99.90;;;;;;8351961;28;19933;-76
2023/07/05 18:05:34;;;;;;;;;;;18.00;99.90;;;;;;8350595;28;20395;-75
2023/07/05 18:09:35;;;;;;;;;;;18.00;99.90;;;;;;8342848;28;19929;-76
2023/07/05 18:13:38;;;;;;;;;;;18.00;99.90;;;;;;8331071;28;19933;-77
2023/07/05 18:17:40;;;;;;;;;;;17.90;99.90;;;;;;8345539;28;19925;-76
2023/07/05 18:21:42;;;;;;;;;;;17.90;99.90;;;;;;8335322;28;20334;-77
2023/07/05 18:25:43;;;;;;;;;;;17.90;99.90;;;;;;8333985;28;19929;-77
2023/07/05 18:29:46;;;;;;;;;;;17.90;99.90;;;;;;8335774;28;20263;-75
2023/07/05 18:33:47;;;;;;;;;;;17.90;99.90;;;;;;8331895;28;20003;-77
2023/07/05 18:37:49;;;;;;;;;;;17.90;99.90;;;;;;8343591;28;19933;-77
2023/07/05 18:41:52;;;;;;;;;;;17.80;99.90;;;;;;8337299;28;19983;-76
2023/07/05 18:45:54;;;;;;;;;;;17.70;99.90;;;;;;8334802;28;19929;-76
2023/07/05 18:49:56;;;;;;;;;;;17.60;99.90;;;;;;8348218;28;20449;-77
2023/07/05 18:53:58;;;;;;;;;;;17.50;99.90;;;;;;8344523;28;20442;-76
2023/07/05 18:58:00;;;;;;;;;;;17.40;99.90;;;;;;8333479;28;20371;-76
2023/07/05 19:02:02;;;;;;;;;;;17.40;99.90;;;;;;8339570;28;19928;-77
2023/07/05 19:06:07;;;;;;;;;;;17.30;99.90;;;;;;8342567;28;19995;-76
2023/07/05 19:10:08;;;;;;;;;;;17.30;99.90;;;;;;8332626;28;20078;-77
2023/07/05 19:14:10;;;;;;;;;;;17.30;99.90;;;;;;8335388;28;19929;-76
2023/07/05 19:18:12;;;;;;;;;;;17.20;99.90;;;;;;8349320;28;19947;-76
2023/07/05 19:22:16;;;;;;;;;;;17.20;99.90;;;;;;8335445;28;20426;-77
2023/07/05 19:26:18;;;;;;;;;;;17.10;99.90;;;;;;8334973;28;19929;-75
2023/07/05 19:30:20;;;;;;;;;;;16.90;99.90;;;;;;8339513;28;19928;-77
2023/07/05 19:34:22;;;;;;;;;;;16.80;99.90;;;;;;8334483;28;20353;-77
2023/07/05 19:38:24;;;;;;;;;;;16.70;99.90;;;;;;8364621;28;19941;-76
2023/07/05 19:42:25;;;;;;;;;;;16.60;99.90;;;;;;8338991;28;20470;-77
2023/07/05 19:46:27;;;;;;;;;;;16.60;99.90;;;;;;8355779;28;19975;-76
2023/07/05 19:50:33;;;;;;;;;;;16.40;99.90;;;;;;8339080;28;19937;-77
2023/07/05 19:54:34;;;;;;;;;;;16.40;99.90;;;;;;8356382;28;20028;-77
2023/07/05 19:58:36;;;;;;;;;;;16.30;99.90;;;;;;8334614;28;20352;-77
2023/07/05 20:02:38;;;;;;;;;;;16.20;99.90;;;;;;8356281;28;19925;-77
2023/07/05 20:06:39;;;;;;;;;;;16.20;99.90;;;;;;8338343;28;19929;-77
2023/07/05 20:10:41;;;;;;;;;;;16.10;99.90;;;;;;8348952;28;19925;-77
2023/07/05 20:14:43;;;;;;;;;;;16.10;99.90;;;;;;8338129;28;19925;-78
2023/07/05 20:18:45;;;;;;;;;;;16.00;99.90;;;;;;8340413;28;19940;-78
2023/07/05 20:22:47;;;;;;;;;;;15.90;99.90;;;;;;8357107;28;19936;-78
2023/07/05 20:26:48;;;;;;;;;;;15.80;99.90;;;;;;8350687;28;19968;-78
2023/07/05 20:30:56;;;;;;;;;;;15.80;99.90;;;;;;8338467;28;19933;-78
2023/07/05 20:34:58;;;;;;;;;;;15.70;99.90;;;;;;8336824;28;19971;-78
2023/07/05 20:38:59;;;;;;;;;;;15.70;99.90;;;;;;8330953;28;19933;-78
2023/07/05 20:43:01;;;;;;;;;;;15.60;99.90;;;;;;8340029;28;20308;-77
2023/07/05 20:47:03;;;;;;;;;;;15.50;99.90;;;;;;8337560;28;20301;-78
2023/07/05 20:51:18;;;;;;;;;;;15.50;99.90;;;;;;8336451;28;19925;-78
2023/07/05 20:55:20;;;;;;;;;;;15.40;99.90;;;;;;8337148;28;20178;-77
2023/07/05 20:59:22;;;;;;;;;;;15.40;99.90;;;;;;8335292;28;19932;-77
2023/07/05 21:08:32;;;;;;;;;;;15.20;99.90;;;;;;8364425;28;19919;-77
2023/07/05 21:12:35;;;;;;;;;;;15.10;99.90;;;;;;8380115;28;19924;-77
2023/07/05 21:16:37;;;;;;;;;;;15.00;99.90;;;;;;8350041;28;19924;-77
2023/07/05 21:20:41;;;;;;;;;;;15.00;99.90;;;;;;8367886;28;19972;-77
2023/07/05 21:24:43;;;;;;;;;;;14.90;99.90;;;;;;8359163;28;19928;-79
2023/07/05 21:28:45;;;;;;;;;;;14.90;99.90;;;;;;8362633;28;19932;-78
2023/07/05 21:32:47;;;;;;;;;;;14.80;99.90;;;;;;8375736;28;19931;-78
2023/07/05 21:36:48;;;;;;;;;;;14.70;99.90;;;;;;8393854;28;20011;-78
2023/07/05 21:40:50;;;;;;;;;;;14.70;99.90;;;;;;8393531;28;19955;-77
2023/07/05 21:44:52;;;;;;;;;;;14.60;99.90;;;;;;8374769;28;19925;-78
2023/07/05 21:48:54;;;;;;;;;;;14.50;99.90;;;;;;8374518;28;19925;-77
2023/07/05 21:52:56;;;;;;;;;;;14.50;99.90;;;;;;8359223;28;19948;-76
2023/07/05 21:56:58;;;;;;;;;;;14.50;99.90;;;;;;8366472;28;19943;-76
2023/07/05 22:01:00;;;;;;;;;;;14.40;99.90;;;;;;8357644;28;20384;-76
2023/07/05 22:05:02;;;;;;;;;;;14.40;99.90;;;;;;8355497;28;20272;-77
2023/07/05 22:09:06;;;;;;;;;;;14.40;99.90;;;;;;8371225;28;19932;-77
2023/07/05 22:13:09;;;;;;;;;;;14.40;99.90;;;;;;8360520;28;21671;-77
2023/07/05 22:17:11;;;;;;;;;;;14.40;99.90;;;;;;8368396;28;19928;-77
2023/07/05 22:21:14;;;;;;;;;;;14.40;99.90;;;;;;8363937;28;20386;-76
2023/07/05 22:25:17;;;;;;;;;;;14.30;99.90;;;;;;8360934;28;19931;-76
2023/07/05 22:29:21;;;;;;;;;;;14.30;99.90;;;;;;8363470;28;19924;-77
2023/07/05 22:33:23;;;;;;;;;;;14.20;99.90;;;;;;8356931;28;19925;-76
2023/07/05 22:37:26;;;;;;;;;;;14.20;99.90;;;;;;8374598;28;19940;-76
2023/07/05 22:41:29;;;;;;;;;;;14.10;99.90;;;;;;8370036;28;19924;-76
2023/07/05 22:45:30;;;;;;;;;;;14.10;99.90;;;;;;8375444;28;19932;-76
2023/07/05 22:49:32;;;;;;;;;;;14.00;99.90;;;;;;8365282;28;20325;-77
2023/07/05 22:53:34;;;;;;;;;;;14.00;99.90;;;;;;8377433;28;20268;-77
2023/07/05 22:57:36;;;;;;;;;;;13.90;99.90;;;;;;8366449;28;20317;-76
2023/07/05 23:01:37;;;;;;;;;;;13.90;99.90;;;;;;8357357;28;19924;-76
2023/07/05 23:05:40;;;;;;;;;;;13.80;99.90;;;;;;8356096;28;19951;-77
2023/07/05 23:09:42;;;;;;;;;;;13.80;99.90;;;;;;8385695;28;19929;-76
2023/07/05 23:13:44;;;;;;;;;;;13.80;99.90;;;;;;8359197;28;19924;-77
2023/07/05 23:17:46;;;;;;;;;;;13.80;99.90;;;;;;8369451;28;20326;-77
2023/07/05 23:21:49;;;;;;;;;;;13.80;99.90;;;;;;8387847;28;19928;-76
2023/07/05 23:25:51;;;;;;;;;;;13.80;99.90;;;;;;8380078;28;19933;-76
2023/07/05 23:29:53;;;;;;;;;;;13.80;99.90;;;;;;8369403;28;20347;-77
2023/07/05 23:33:55;;;;;;;;;;;13.80;99.90;;;;;;8364236;28;20433;-77
2023/07/05 23:37:57;;;;;;;;;;;13.80;99.90;;;;;;8371707;28;19929;-76
2023/07/05 23:41:58;;;;;;;;;;;13.70;99.90;;;;;;8338934;28;19936;-77
2023/07/05 23:46:03;;;;;;;;;;;13.70;99.90;;;;;;8372513;28;19933;-76
2023/07/05 23:50:07;;;;;;;;;;;13.70;99.90;;;;;;8382778;28;19935;-77
2023/07/05 23:54:09;;;;;;;;;;;13.70;99.90;;;;;;8370397;28;19925;-76
2023/07/05 23:58:12;;;;;;;;;;;13.70;99.90;;;;;;8367174;28;19928;-76
